Time;durP1;ratioP1;P1;durP2;ratioP2;P2;SDS_P1;SDS_P2;PMS_P1;PMS_P2;Temp;Humidity;BMP_temperature;BMP_pressure;BME280_temperature;BME280_humidity;BME280_pressure;Samples;Min_cycle;Max_cycle;Signal;HPM_P1;HPM_P2
2024/03/20 00:00:30;;;;;;;;;;;19.10;59.40;;;;;;5115663;28;19912;-72
2024/03/20 00:02:56;;;;;;;;;;;19.10;58.60;;;;;;5115478;28;19920;-72
2024/03/20 00:05:22;;;;;;;;;;;19.00;59.40;;;;;;5115447;28;20383;-72
2024/03/20 00:07:47;;;;;;;;;;;19.00;59.20;;;;;;5115788;28;19907;-72
2024/03/20 00:10:13;;;;;;;;;;;19.00;59.40;;;;;;5115437;28;19990;-72
2024/03/20 00:12:40;;;;;;;;;;;19.00;59.60;;;;;;5097240;28;19912;-72
2024/03/20 00:15:06;;;;;;;;;;;19.00;59.50;;;;;;5115357;28;19908;-72
2024/03/20 00:17:31;;;;;;;;;;;19.00;59.00;;;;;;5115622;28;19967;-72
2024/03/20 00:19:57;;;;;;;;;;;19.00;59.70;;;;;;5115320;28;20004;-73
2024/03/20 00:22:22;;;;;;;;;;;19.00;59.70;;;;;;5115212;28;19943;-72
2024/03/20 00:24:48;;;;;;;;;;;19.00;59.70;;;;;;5115449;28;20457;-72
2024/03/20 00:27:15;;;;;;;;;;;19.00;59.70;;;;;;5115092;28;20006;-73
2024/03/20 00:29:40;;;;;;;;;;;19.00;59.30;;;;;;5115125;28;19960;-72
2024/03/20 00:32:06;;;;;;;;;;;19.20;59.60;;;;;;5114994;28;19912;-72
2024/03/20 00:34:32;;;;;;;;;;;18.90;59.10;;;;;;5115525;28;19908;-72
2024/03/20 00:36:57;;;;;;;;;;;19.00;59.90;;;;;;5114858;28;19963;-72
2024/03/20 00:39:23;;;;;;;;;;;19.00;59.60;;;;;;5114935;28;19947;-72
2024/03/20 00:41:49;;;;;;;;;;;19.00;59.70;;;;;;5114749;28;19950;-72
2024/03/20 00:44:14;;;;;;;;;;;19.00;59.80;;;;;;5115027;28;19927;-72
2024/03/20 00:46:40;;;;;;;;;;;19.00;59.80;;;;;;5114801;28;19994;-72
2024/03/20 00:49:06;;;;;;;;;;;19.00;59.80;;;;;;5114633;28;20369;-72
2024/03/20 00:51:32;;;;;;;;;;;19.00;59.70;;;;;;5114810;28;20319;-72
2024/03/20 00:53:57;;;;;;;;;;;19.00;59.80;;;;;;5114608;28;19908;-73
2024/03/20 00:56:24;;;;;;;;;;;18.60;59.60;;;;;;5114384;28;20289;-72
2024/03/20 00:58:49;;;;;;;;;;;19.00;59.80;;;;;;5114448;28;19912;-73
2024/03/20 01:01:15;;;;;;;;;;;19.00;59.90;;;;;;5113755;28;19953;-72
2024/03/20 01:03:41;;;;;;;;;;;19.10;59.50;;;;;;5114643;28;20037;-72
2024/03/20 01:06:06;;;;;;;;;;;19.00;60.30;;;;;;5114338;28;19908;-72
2024/03/20 01:08:32;;;;;;;;;;;19.00;60.00;;;;;;5114236;28;19938;-73
2024/03/20 01:10:57;;;;;;;;;;;19.00;60.20;;;;;;5114165;28;19933;-72
2024/03/20 01:13:23;;;;;;;;;;;19.00;59.80;;;;;;5114222;28;19998;-72
2024/03/20 01:15:51;;;;;;;;;;;18.90;59.90;;;;;;5114102;28;19920;-72
2024/03/20 01:18:16;;;;;;;;;;;19.00;60.00;;;;;;5114086;28;19907;-73
2024/03/20 01:20:42;;;;;;;;;;;19.00;59.80;;;;;;5114023;28;19908;-73
2024/03/20 01:23:08;;;;;;;;;;;19.00;60.00;;;;;;5113940;28;20010;-73
2024/03/20 01:25:33;;;;;;;;;;;18.90;60.00;;;;;;5095631;28;19915;-73
2024/03/20 01:27:59;;;;;;;;;;;18.90;59.90;;;;;;5113866;28;19908;-73
2024/03/20 01:30:24;;;;;;;;;;;19.00;59.40;;;;;;5114276;28;19982;-72
2024/03/20 01:32:50;;;;;;;;;;;19.10;60.20;;;;;;5113791;28;19908;-72
2024/03/20 01:35:15;;;;;;;;;;;19.00;60.00;;;;;;5113732;28;19912;-73
2024/03/20 01:37:41;;;;;;;;;;;18.90;59.70;;;;;;5113673;28;19973;-73
2024/03/20 01:40:06;;;;;;;;;;;18.90;60.00;;;;;;5113709;28;20424;-73
2024/03/20 01:42:33;;;;;;;;;;;18.90;58.90;;;;;;5113556;28;19943;-73
2024/03/20 01:45:20;;;;;;;;;;;18.90;60.10;;;;;;5113667;28;19908;-72
2024/03/20 01:47:46;;;;;;;;;;;18.90;60.00;;;;;;5113449;28;19955;-72
2024/03/20 01:50:13;;;;;;;;;;;18.90;60.00;;;;;;5113419;28;19939;-73
2024/03/20 01:52:47;;;;;;;;;;;18.90;59.90;;;;;;5113455;28;19970;-73
2024/03/20 01:55:12;;;;;;;;;;;18.90;60.00;;;;;;5113402;28;19907;-73
2024/03/20 01:57:38;;;;;;;;;;;18.90;60.10;;;;;;5113227;28;19916;-73
2024/03/20 02:00:04;;;;;;;;;;;18.90;60.20;;;;;;5113739;28;20411;-73
2024/03/20 02:02:29;;;;;;;;;;;19.00;59.70;;;;;;5113202;28;19946;-72
2024/03/20 02:04:54;;;;;;;;;;;18.90;60.10;;;;;;5113457;28;19908;-73
2024/03/20 02:07:20;;;;;;;;;;;18.90;60.40;;;;;;5113130;28;19908;-72
2024/03/20 02:09:45;;;;;;;;;;;19.00;60.30;;;;;;5113125;28;19951;-72
2024/03/20 02:12:11;;;;;;;;;;;18.90;60.10;;;;;;5112137;28;19965;-72
2024/03/20 02:14:37;;;;;;;;;;;18.90;60.30;;;;;;5112991;28;19908;-72
2024/03/20 02:17:03;;;;;;;;;;;18.90;60.30;;;;;;5112813;28;20331;-72
2024/03/20 02:19:28;;;;;;;;;;;18.90;60.10;;;;;;5112967;28;19998;-72
2024/03/20 02:21:54;;;;;;;;;;;18.90;60.40;;;;;;5112910;28;19908;-72
2024/03/20 02:24:19;;;;;;;;;;;18.90;60.30;;;;;;5112895;28;20377;-72
2024/03/20 02:26:45;;;;;;;;;;;18.90;60.40;;;;;;5113001;28;19908;-73
2024/03/20 02:29:10;;;;;;;;;;;19.00;60.10;;;;;;5113338;28;19919;-73
2024/03/20 02:31:36;;;;;;;;;;;18.90;60.10;;;;;;5112706;28;19915;-73
2024/03/20 02:34:01;;;;;;;;;;;18.90;60.20;;;;;;5112663;28;20008;-72
2024/03/20 02:36:27;;;;;;;;;;;18.90;60.10;;;;;;5112489;28;20060;-72
2024/03/20 02:38:52;;;;;;;;;;;18.90;60.20;;;;;;5112729;28;19931;-72
2024/03/20 02:41:19;;;;;;;;;;;18.90;60.40;;;;;;5112895;28;20290;-73
2024/03/20 02:43:44;;;;;;;;;;;18.90;60.20;;;;;;5112590;28;19908;-73
2024/03/20 02:46:10;;;;;;;;;;;18.90;60.60;;;;;;5112504;28;20328;-72
2024/03/20 02:48:35;;;;;;;;;;;19.10;60.90;;;;;;5112535;28;19907;-73
2024/03/20 02:51:02;;;;;;;;;;;18.90;60.40;;;;;;5112438;28;19966;-72
2024/03/20 02:53:27;;;;;;;;;;;18.80;60.20;;;;;;5094603;28;19915;-73
2024/03/20 02:55:53;;;;;;;;;;;18.90;59.80;;;;;;5112843;28;19912;-72
2024/03/20 02:58:18;;;;;;;;;;;18.80;60.10;;;;;;5112402;28;20350;-72
2024/03/20 03:00:44;;;;;;;;;;;18.90;60.20;;;;;;5112302;28;20335;-72
2024/03/20 03:03:09;;;;;;;;;;;18.90;59.70;;;;;;5112004;28;19919;-72
2024/03/20 03:05:35;;;;;;;;;;;18.80;60.30;;;;;;5112558;28;19908;-72
2024/03/20 03:08:00;;;;;;;;;;;19.20;60.50;;;;;;5112388;28;20017;-72
2024/03/20 03:10:27;;;;;;;;;;;18.80;60.40;;;;;;5112306;28;19942;-72
2024/03/20 03:12:52;;;;;;;;;;;18.80;60.50;;;;;;5112220;28;19908;-72
2024/03/20 03:15:19;;;;;;;;;;;18.80;60.00;;;;;;5112203;28;19907;-72
2024/03/20 03:17:50;;;;;;;;;;;18.80;60.20;;;;;;5112366;28;19916;-72
2024/03/20 03:20:16;;;;;;;;;;;18.80;60.40;;;;;;5112235;28;20011;-72
2024/03/20 03:22:42;;;;;;;;;;;18.80;60.10;;;;;;5112151;28;19969;-73
2024/03/20 03:25:08;;;;;;;;;;;18.90;59.90;;;;;;5116627;28;19931;-72
2024/03/20 03:27:34;;;;;;;;;;;18.80;60.00;;;;;;5116287;28;19953;-73
2024/03/20 03:30:00;;;;;;;;;;;18.40;60.10;;;;;;5116207;28;19908;-73
2024/03/20 03:32:25;;;;;;;;;;;18.80;60.10;;;;;;5116040;28;19908;-72
2024/03/20 03:34:51;;;;;;;;;;;18.80;60.30;;;;;;5116248;28;19911;-73
2024/03/20 03:37:17;;;;;;;;;;;18.80;60.20;;;;;;5116028;28;19922;-72
2024/03/20 03:39:43;;;;;;;;;;;18.80;60.00;;;;;;5116073;28;19908;-72
2024/03/20 03:42:08;;;;;;;;;;;18.80;60.00;;;;;;5116014;28;20404;-73
2024/03/20 03:44:34;;;;;;;;;;;18.80;60.40;;;;;;5116018;28;20285;-72
2024/03/20 03:46:59;;;;;;;;;;;18.70;60.30;;;;;;5115774;28;20006;-72
2024/03/20 03:49:25;;;;;;;;;;;19.30;60.40;;;;;;5115817;28;20374;-73
2024/03/20 03:51:50;;;;;;;;;;;18.70;60.00;;;;;;5115841;28;20097;-72
2024/03/20 03:54:16;;;;;;;;;;;18.80;60.00;;;;;;5098009;28;19908;-72
2024/03/20 03:56:41;;;;;;;;;;;18.80;60.10;;;;;;5115627;28;20350;-72
2024/03/20 03:59:06;;;;;;;;;;;18.70;60.20;;;;;;5115729;28;19911;-72
2024/03/20 04:01:32;;;;;;;;;;;18.80;59.60;;;;;;5115518;28;20365;-72
2024/03/20 04:03:57;;;;;;;;;;;18.70;60.30;;;;;;5115502;28;19920;-72
2024/03/20 04:06:23;;;;;;;;;;;18.70;60.10;;;;;;5115697;28;20354;-73
2024/03/20 04:08:48;;;;;;;;;;;18.40;60.00;;;;;;5115518;28;19915;-72
2024/03/20 04:11:14;;;;;;;;;;;18.70;60.10;;;;;;5115398;28;19916;-72
2024/03/20 04:13:39;;;;;;;;;;;18.70;60.30;;;;;;5115493;28;19939;-72
2024/03/20 04:16:05;;;;;;;;;;;18.70;60.30;;;;;;5115231;28;20289;-72
2024/03/20 04:18:30;;;;;;;;;;;18.70;60.30;;;;;;5115286;28;19912;-72
2024/03/20 04:20:56;;;;;;;;;;;18.70;60.20;;;;;;5115839;28;19912;-72
2024/03/20 04:23:21;;;;;;;;;;;18.70;60.30;;;;;;5115222;28;19915;-73
2024/03/20 04:25:47;;;;;;;;;;;18.60;60.20;;;;;;5115100;28;20002;-72
2024/03/20 04:28:12;;;;;;;;;;;18.60;60.00;;;;;;5115096;28;19908;-72
2024/03/20 04:30:38;;;;;;;;;;;18.70;60.30;;;;;;5115117;28;19908;-72
2024/03/20 04:33:04;;;;;;;;;;;18.60;60.30;;;;;;5115169;28;19908;-72
2024/03/20 04:35:30;;;;;;;;;;;18.80;59.60;;;;;;5114205;28;19908;-73
2024/03/20 04:37:55;;;;;;;;;;;18.60;60.10;;;;;;5114876;28;19971;-73
2024/03/20 04:40:21;;;;;;;;;;;18.70;60.40;;;;;;5114845;28;19999;-73
2024/03/20 04:42:46;;;;;;;;;;;18.60;60.20;;;;;;5114896;28;20370;-73
2024/03/20 04:45:12;;;;;;;;;;;18.60;60.40;;;;;;5114803;28;20353;-73
2024/03/20 04:47:38;;;;;;;;;;;18.70;60.50;;;;;;5114905;28;19914;-72
2024/03/20 04:50:10;;;;;;;;;;;18.60;60.10;;;;;;5115233;28;20271;-73
2024/03/20 04:52:35;;;;;;;;;;;18.60;59.90;;;;;;5114907;28;19915;-72
2024/03/20 04:55:01;;;;;;;;;;;18.60;60.40;;;;;;5114646;28;19915;-72
2024/03/20 04:57:26;;;;;;;;;;;18.60;60.60;;;;;;5114451;28;19990;-72
2024/03/20 04:59:51;;;;;;;;;;;18.60;60.50;;;;;;5114539;28;19908;-72
2024/03/20 05:02:17;;;;;;;;;;;18.60;60.00;;;;;;5114252;28;20129;-72
2024/03/20 05:04:42;;;;;;;;;;;18.60;60.80;;;;;;5114547;28;19908;-73
2024/03/20 05:07:08;;;;;;;;;;;18.60;60.40;;;;;;5114425;28;19907;-73
2024/03/20 05:09:34;;;;;;;;;;;18.60;60.60;;;;;;5114366;28;19930;-72
2024/03/20 05:11:59;;;;;;;;;;;18.50;60.80;;;;;;5114346;28;19908;-72
2024/03/20 05:14:25;;;;;;;;;;;18.60;61.40;;;;;;5114247;28;19907;-73
2024/03/20 05:16:52;;;;;;;;;;;18.50;60.90;;;;;;5114320;28;19920;-72
2024/03/20 05:19:18;;;;;;;;;;;18.50;61.00;;;;;;5114572;28;20432;-72
2024/03/20 05:21:44;;;;;;;;;;;18.60;60.60;;;;;;5114024;28;20389;-73
2024/03/20 05:24:10;;;;;;;;;;;18.60;60.90;;;;;;5114026;28;19912;-73
2024/03/20 05:26:36;;;;;;;;;;;18.60;60.90;;;;;;5114177;28;19908;-72
2024/03/20 05:29:02;;;;;;;;;;;18.50;60.90;;;;;;5095687;28;19908;-72
2024/03/20 05:31:28;;;;;;;;;;;18.50;61.30;;;;;;5113909;28;19915;-73
2024/03/20 05:33:54;;;;;;;;;;;18.50;60.80;;;;;;5114135;28;19908;-73
2024/03/20 05:36:20;;;;;;;;;;;18.50;61.20;;;;;;5114002;28;20034;-72
2024/03/20 05:38:46;;;;;;;;;;;18.60;61.30;;;;;;5114088;28;20146;-72
2024/03/20 05:41:13;;;;;;;;;;;18.60;61.00;;;;;;5114028;28;20011;-73
2024/03/20 05:43:40;;;;;;;;;;;18.50;61.30;;;;;;5113933;28;19907;-72
2024/03/20 05:46:09;;;;;;;;;;;18.50;61.20;;;;;;5113734;28;20433;-73
2024/03/20 05:48:38;;;;;;;;;;;18.60;61.60;;;;;;5114215;28;20246;-73
2024/03/20 05:51:04;;;;;;;;;;;18.60;58.30;;;;;;5113600;28;19908;-72
2024/03/20 05:53:30;;;;;;;;;;;18.60;61.40;;;;;;5113040;28;20385;-73
2024/03/20 05:55:55;;;;;;;;;;;18.50;61.30;;;;;;5113096;28;19908;-72
2024/03/20 05:58:21;;;;;;;;;;;18.30;60.60;;;;;;5113309;28;19911;-73
2024/03/20 06:00:46;;;;;;;;;;;18.50;61.30;;;;;;5113266;28;19979;-73
2024/03/20 06:03:12;;;;;;;;;;;18.60;60.90;;;;;;5112976;28;19928;-72
2024/03/20 06:05:37;;;;;;;;;;;18.50;61.10;;;;;;5113092;28;20357;-72
2024/03/20 06:08:03;;;;;;;;;;;18.50;61.30;;;;;;5112942;28;20270;-73
2024/03/20 06:10:29;;;;;;;;;;;18.50;61.00;;;;;;5112902;28;19915;-73
2024/03/20 06:12:55;;;;;;;;;;;18.50;61.50;;;;;;5113178;28;19911;-73
2024/03/20 06:15:20;;;;;;;;;;;18.50;61.30;;;;;;5113502;28;20404;-72
2024/03/20 06:17:46;;;;;;;;;;;18.50;61.40;;;;;;5113106;28;20547;-72
2024/03/20 06:20:13;;;;;;;;;;;18.50;61.80;;;;;;5112835;28;19908;-72
2024/03/20 06:22:38;;;;;;;;;;;18.50;61.30;;;;;;5113035;28;19977;-72
2024/03/20 06:25:06;;;;;;;;;;;18.60;61.60;;;;;;5113011;28;19908;-72
2024/03/20 06:27:32;;;;;;;;;;;18.50;61.60;;;;;;5112770;28;20330;-73
2024/03/20 06:29:58;;;;;;;;;;;18.50;61.40;;;;;;5112987;28;19994;-72
2024/03/20 06:32:24;;;;;;;;;;;18.50;61.70;;;;;;5112592;28;19946;-72
2024/03/20 06:34:49;;;;;;;;;;;18.50;61.30;;;;;;5112614;28;20346;-72
2024/03/20 06:37:15;;;;;;;;;;;18.50;61.50;;;;;;5112696;28;19946;-73
2024/03/20 06:39:41;;;;;;;;;;;18.60;61.60;;;;;;5112529;28;19919;-73
2024/03/20 06:42:16;;;;;;;;;;;18.50;61.50;;;;;;5112628;28;20331;-72
2024/03/20 06:44:41;;;;;;;;;;;18.50;61.50;;;;;;5112956;28;19919;-72
2024/03/20 06:47:07;;;;;;;;;;;18.50;62.60;;;;;;5112453;28;19912;-72
2024/03/20 06:49:33;;;;;;;;;;;18.50;61.70;;;;;;5112443;28;19915;-73
2024/03/20 06:51:59;;;;;;;;;;;18.50;61.10;;;;;;5112328;28;19915;-73
2024/03/20 06:54:26;;;;;;;;;;;18.50;61.60;;;;;;5112406;28;19908;-72
2024/03/20 06:56:58;;;;;;;;;;;18.60;61.60;;;;;;5112536;28;19961;-71
2024/03/20 06:59:24;;;;;;;;;;;18.60;61.40;;;;;;5112013;28;19915;-72
2024/03/20 07:01:49;;;;;;;;;;;18.60;61.00;;;;;;5112127;28;20299;-70
2024/03/20 07:04:15;;;;;;;;;;;18.50;61.70;;;;;;5112529;28;19920;-70
2024/03/20 07:06:41;;;;;;;;;;;18.60;61.50;;;;;;5112004;28;19959;-70
2024/03/20 07:09:08;;;;;;;;;;;18.60;61.60;;;;;;5112239;28;20426;-71
2024/03/20 07:11:34;;;;;;;;;;;18.60;61.70;;;;;;5112177;28;19987;-72
2024/03/20 07:13:59;;;;;;;;;;;18.50;61.30;;;;;;5112473;28;19946;-71
2024/03/20 07:16:26;;;;;;;;;;;18.50;61.60;;;;;;5111996;28;19920;-73
2024/03/20 07:18:52;;;;;;;;;;;19.00;61.80;;;;;;5112285;28;19914;-72
2024/03/20 07:21:20;;;;;;;;;;;18.60;61.40;;;;;;5112197;28;20006;-72
2024/03/20 07:23:46;;;;;;;;;;;18.50;61.60;;;;;;5112065;28;19914;-72
2024/03/20 07:26:11;;;;;;;;;;;18.50;61.90;;;;;;5112180;28;19907;-72
2024/03/20 07:28:38;;;;;;;;;;;18.50;61.60;;;;;;5112178;28;20432;-73
2024/03/20 07:31:04;;;;;;;;;;;18.50;61.40;;;;;;5111970;28;19908;-73
2024/03/20 07:33:29;;;;;;;;;;;18.50;61.50;;;;;;5111910;28;19953;-70
2024/03/20 07:35:55;;;;;;;;;;;18.60;61.60;;;;;;5112040;28;19951;-69
2024/03/20 07:38:20;;;;;;;;;;;18.60;62.20;;;;;;5111863;28;19908;-70
2024/03/20 07:40:55;;;;;;;;;;;18.50;61.40;;;;;;5112275;28;19908;-70
2024/03/20 07:43:21;;;;;;;;;;;18.50;58.50;;;;;;5111711;28;19965;-70
2024/03/20 07:45:47;;;;;;;;;;;18.60;61.40;;;;;;5111934;28;19908;-70
2024/03/20 07:48:12;;;;;;;;;;;18.50;61.60;;;;;;5111840;28;19923;-70
2024/03/20 07:50:39;;;;;;;;;;;18.50;61.60;;;;;;5111863;28;20438;-70
2024/03/20 07:53:05;;;;;;;;;;;18.50;61.60;;;;;;5112220;28;19908;-70
2024/03/20 07:55:31;;;;;;;;;;;18.50;61.60;;;;;;5112075;28;19908;-70
2024/03/20 07:57:56;;;;;;;;;;;17.80;61.10;;;;;;5111732;28;19915;-71
2024/03/20 08:00:28;;;;;;;;;;;18.50;61.60;;;;;;5111787;28;19951;-70
2024/03/20 08:02:56;;;;;;;;;;;18.60;61.20;;;;;;5111577;28;19920;-71
2024/03/20 08:05:25;;;;;;;;;;;18.60;58.70;;;;;;5111722;28;19930;-70
2024/03/20 08:07:51;;;;;;;;;;;18.60;58.70;;;;;;5111582;28;19930;-70
2024/03/20 08:10:16;;;;;;;;;;;18.50;61.60;;;;;;5115013;28;20334;-70
2024/03/20 08:12:42;;;;;;;;;;;18.60;61.60;;;;;;5115600;28;20003;-69
2024/03/20 08:15:08;;;;;;;;;;;18.60;61.70;;;;;;5115338;28;19912;-70
2024/03/20 08:17:36;;;;;;;;;;;18.50;61.10;;;;;;5115454;28;20018;-69
2024/03/20 08:20:02;;;;;;;;;;;18.60;61.70;;;;;;5115053;28;20002;-70
2024/03/20 08:22:29;;;;;;;;;;;18.50;61.80;;;;;;5115199;28;19944;-70
2024/03/20 08:24:55;;;;;;;;;;;18.60;61.90;;;;;;5115138;28;19911;-70
2024/03/20 08:27:25;;;;;;;;;;;18.60;61.80;;;;;;5115017;28;19999;-70
2024/03/20 08:29:51;;;;;;;;;;;18.60;61.90;;;;;;5114990;28;19987;-70
2024/03/20 08:32:17;;;;;;;;;;;18.60;62.30;;;;;;5115187;28;19915;-70
2024/03/20 08:34:42;;;;;;;;;;;18.60;61.90;;;;;;5115215;28;19908;-71
2024/03/20 08:37:08;;;;;;;;;;;19.10;62.20;;;;;;5115016;28;19916;-70
2024/03/20 08:39:33;;;;;;;;;;;18.60;62.50;;;;;;5115601;28;19986;-70
2024/03/20 08:41:59;;;;;;;;;;;18.60;62.10;;;;;;5114779;28;19908;-70
2024/03/20 08:44:24;;;;;;;;;;;18.60;62.10;;;;;;5114704;28;19923;-70
2024/03/20 08:46:50;;;;;;;;;;;18.70;62.40;;;;;;5115043;28;19946;-70
2024/03/20 08:49:15;;;;;;;;;;;18.70;61.80;;;;;;5114872;28;19915;-71
2024/03/20 08:51:41;;;;;;;;;;;18.70;62.50;;;;;;5114584;28;19957;-71
2024/03/20 08:54:07;;;;;;;;;;;18.20;62.30;;;;;;5114521;28;19975;-71
2024/03/20 08:56:32;;;;;;;;;;;19.10;62.80;;;;;;5114429;28;19961;-71
2024/03/20 08:58:58;;;;;;;;;;;18.80;62.50;;;;;;5114743;28;19908;-70
2024/03/20 09:01:23;;;;;;;;;;;18.80;62.60;;;;;;5114399;28;20362;-70
2024/03/20 09:03:49;;;;;;;;;;;18.80;61.90;;;;;;5114151;28;20022;-71
2024/03/20 09:06:14;;;;;;;;;;;18.80;62.50;;;;;;5114732;28;19908;-70
2024/03/20 09:08:40;;;;;;;;;;;18.80;62.60;;;;;;5114279;28;20398;-70
2024/03/20 09:11:06;;;;;;;;;;;18.90;62.60;;;;;;5114155;28;19908;-71
2024/03/20 09:13:32;;;;;;;;;;;18.90;62.60;;;;;;5114118;28;19912;-70
2024/03/20 09:15:57;;;;;;;;;;;18.80;62.70;;;;;;5114103;28;19908;-71
2024/03/20 09:18:23;;;;;;;;;;;18.80;62.50;;;;;;5114138;28;19918;-71
2024/03/20 09:20:51;;;;;;;;;;;18.90;62.70;;;;;;5113587;28;19976;-70
2024/03/20 09:23:17;;;;;;;;;;;18.90;62.80;;;;;;5114262;28;19999;-71
2024/03/20 09:25:43;;;;;;;;;;;19.00;62.80;;;;;;5114356;28;19915;-71
2024/03/20 09:28:09;;;;;;;;;;;19.00;62.80;;;;;;5114089;28;19908;-72
2024/03/20 09:30:34;;;;;;;;;;;19.10;63.20;;;;;;5113632;28;20258;-72
2024/03/20 09:33:00;;;;;;;;;;;19.40;62.90;;;;;;5113881;28;19908;-72
2024/03/20 09:35:26;;;;;;;;;;;21.20;63.80;;;;;;5114155;28;19908;-73
2024/03/20 09:37:51;;;;;;;;;;;19.10;63.00;;;;;;5113817;28;20010;-73
2024/03/20 09:40:22;;;;;;;;;;;19.10;63.00;;;;;;5113663;28;19912;-71
2024/03/20 09:42:47;;;;;;;;;;;19.40;63.00;;;;;;5113616;28;20366;-72
2024/03/20 09:45:13;;;;;;;;;;;19.20;63.00;;;;;;5113544;28;20009;-72
2024/03/20 09:47:39;;;;;;;;;;;19.20;63.10;;;;;;5113483;28;19915;-70
2024/03/20 09:50:11;;;;;;;;;;;19.30;62.90;;;;;;5113568;28;19915;-71
2024/03/20 09:52:37;;;;;;;;;;;19.30;60.10;;;;;;5113381;28;19996;-70
2024/03/20 09:55:06;;;;;;;;;;;19.30;63.00;;;;;;5113371;28;19965;-71
2024/03/20 09:57:33;;;;;;;;;;;19.30;62.90;;;;;;5113492;28;19920;-70
2024/03/20 09:59:59;;;;;;;;;;;19.40;62.90;;;;;;5113545;28;20520;-71
2024/03/20 10:02:26;;;;;;;;;;;19.50;62.50;;;;;;5112970;28;20495;-71
2024/03/20 10:04:55;;;;;;;;;;;19.30;63.00;;;;;;5113237;28;19914;-70
2024/03/20 10:07:21;;;;;;;;;;;19.50;60.20;;;;;;5113170;28;19918;-71
2024/03/20 10:09:47;;;;;;;;;;;19.50;63.20;;;;;;5113430;28;19908;-70
2024/03/20 10:12:14;;;;;;;;;;;19.60;63.20;;;;;;5113021;28;20249;-71
2024/03/20 10:14:40;;;;;;;;;;;19.60;63.20;;;;;;5113238;28;19914;-71
2024/03/20 10:17:14;;;;;;;;;;;19.60;63.00;;;;;;5113187;28;19939;-71
2024/03/20 10:19:40;;;;;;;;;;;19.60;60.10;;;;;;5112799;28;20378;-70
2024/03/20 10:22:07;;;;;;;;;;;19.50;63.20;;;;;;5113677;28;19934;-71
2024/03/20 10:24:33;;;;;;;;;;;19.70;62.90;;;;;;5113088;28;19918;-70
2024/03/20 10:27:01;;;;;;;;;;;19.70;63.10;;;;;;5112814;28;20041;-70
2024/03/20 10:29:29;;;;;;;;;;;19.70;63.50;;;;;;5112664;28;19920;-70
2024/03/20 10:31:59;;;;;;;;;;;19.80;63.20;;;;;;5113021;28;19908;-70
2024/03/20 10:34:27;;;;;;;;;;;19.80;63.00;;;;;;5112242;28;20263;-70
2024/03/20 10:36:53;;;;;;;;;;;19.80;63.10;;;;;;5112840;28;19923;-70
2024/03/20 10:39:23;;;;;;;;;;;19.80;62.90;;;;;;5112951;28;20041;-70
2024/03/20 10:41:49;;;;;;;;;;;19.80;63.20;;;;;;5112677;28;19936;-69
2024/03/20 10:44:17;;;;;;;;;;;19.90;63.20;;;;;;5112879;28;19915;-69
2024/03/20 10:46:46;;;;;;;;;;;19.90;63.10;;;;;;5112426;28;19908;-70
2024/03/20 10:49:22;;;;;;;;;;;19.90;63.20;;;;;;5112475;28;19908;-69
2024/03/20 10:51:49;;;;;;;;;;;20.00;60.40;;;;;;5113188;28;19908;-69
2024/03/20 10:54:15;;;;;;;;;;;20.00;63.30;;;;;;5112234;28;19960;-71
2024/03/20 10:56:44;;;;;;;;;;;20.00;63.10;;;;;;5112307;28;19955;-70
2024/03/20 10:59:19;;;;;;;;;;;20.10;60.40;;;;;;5112253;28;19908;-69
2024/03/20 11:01:58;;;;;;;;;;;20.20;62.70;;;;;;5112504;28;19915;-69
2024/03/20 11:04:42;;;;;;;;;;;20.10;60.50;;;;;;5112628;28;19946;-69
2024/03/20 11:07:29;;;;;;;;;;;20.20;60.40;;;;;;5112484;28;19908;-69
2024/03/20 11:09:55;;;;;;;;;;;20.20;60.40;;;;;;5112557;28;19907;-69
2024/03/20 11:12:28;;;;;;;;;;;20.50;62.90;;;;;;5112469;28;19919;-70
2024/03/20 11:14:57;;;;;;;;;;;20.30;60.20;;;;;;5112250;28;19908;-71
2024/03/20 11:17:24;;;;;;;;;;;20.30;60.20;;;;;;5112098;28;19916;-71
2024/03/20 11:19:51;;;;;;;;;;;20.40;63.00;;;;;;5112733;28;19930;-72
2024/03/20 11:22:20;;;;;;;;;;;20.40;62.80;;;;;;5112429;28;19908;-72
2024/03/20 11:24:46;;;;;;;;;;;20.50;60.00;;;;;;5112098;28;19977;-72
2024/03/20 11:27:12;;;;;;;;;;;20.50;62.60;;;;;;5112102;28;19916;-72
2024/03/20 11:29:37;;;;;;;;;;;20.50;62.60;;;;;;5112043;28;19931;-72
2024/03/20 11:32:03;;;;;;;;;;;20.60;62.70;;;;;;5093842;28;20295;-72
2024/03/20 11:34:29;;;;;;;;;;;20.60;62.50;;;;;;5112176;28;19907;-72
2024/03/20 11:36:54;;;;;;;;;;;20.70;62.90;;;;;;5111994;28;20023;-72
2024/03/20 11:39:20;;;;;;;;;;;20.70;62.90;;;;;;5111896;28;19991;-73
2024/03/20 11:41:46;;;;;;;;;;;20.80;62.90;;;;;;5111841;28;20010;-72
2024/03/20 11:44:11;;;;;;;;;;;20.80;62.70;;;;;;5112709;28;20290;-73
2024/03/20 11:46:38;;;;;;;;;;;20.90;62.60;;;;;;5116116;28;19915;-72
2024/03/20 11:49:06;;;;;;;;;;;20.90;62.60;;;;;;5116353;28;20276;-73
2024/03/20 11:51:32;;;;;;;;;;;21.00;62.50;;;;;;5115827;28;20002;-72
2024/03/20 11:53:58;;;;;;;;;;;21.00;62.50;;;;;;5115612;28;19912;-72
2024/03/20 11:56:23;;;;;;;;;;;21.00;62.60;;;;;;5115977;28;19941;-73
2024/03/20 11:58:49;;;;;;;;;;;21.00;62.50;;;;;;5115761;28;20433;-72
2024/03/20 12:01:15;;;;;;;;;;;21.10;62.50;;;;;;5115934;28;19979;-72
2024/03/20 12:03:42;;;;;;;;;;;21.20;61.90;;;;;;5115392;28;19924;-73
2024/03/20 12:06:11;;;;;;;;;;;21.20;61.90;;;;;;5115493;28;19919;-72
2024/03/20 12:08:40;;;;;;;;;;;21.30;59.90;;;;;;5115539;28;19966;-73
2024/03/20 12:11:23;;;;;;;;;;;21.40;59.10;;;;;;5115782;28;19908;-73
2024/03/20 12:13:51;;;;;;;;;;;21.50;59.60;;;;;;5115641;28;19908;-72
2024/03/20 12:16:16;;;;;;;;;;;21.60;61.30;;;;;;5115854;28;19915;-72
2024/03/20 12:18:42;;;;;;;;;;;21.70;60.80;;;;;;5115292;28;19908;-73
2024/03/20 12:21:12;;;;;;;;;;;21.80;60.50;;;;;;5115489;28;20350;-73
2024/03/20 12:23:37;;;;;;;;;;;21.80;60.40;;;;;;5115709;28;19950;-72
2024/03/20 12:26:05;;;;;;;;;;;21.90;60.20;;;;;;5115109;28;19951;-72
2024/03/20 12:28:32;;;;;;;;;;;22.00;60.20;;;;;;5115184;28;20037;-73
2024/03/20 12:30:58;;;;;;;;;;;22.00;59.90;;;;;;5115105;28;19937;-72
2024/03/20 12:33:25;;;;;;;;;;;22.00;59.90;;;;;;5115086;28;19908;-72
2024/03/20 12:35:51;;;;;;;;;;;22.10;59.70;;;;;;5115102;28;19915;-72
2024/03/20 12:38:17;;;;;;;;;;;22.80;60.20;;;;;;5115160;28;20391;-73
2024/03/20 12:40:43;;;;;;;;;;;22.20;59.70;;;;;;5114925;28;19914;-73
2024/03/20 12:43:10;;;;;;;;;;;22.20;59.80;;;;;;5114841;28;19908;-73
2024/03/20 12:45:35;;;;;;;;;;;22.20;60.10;;;;;;5115378;28;20362;-72
2024/03/20 12:48:01;;;;;;;;;;;22.30;60.00;;;;;;5114909;28;19919;-73
2024/03/20 12:50:27;;;;;;;;;;;22.20;60.00;;;;;;5114953;28;19908;-73
2024/03/20 12:52:53;;;;;;;;;;;22.40;60.00;;;;;;5114783;28;20003;-72
2024/03/20 12:55:18;;;;;;;;;;;22.40;59.60;;;;;;5114343;28;19908;-72
2024/03/20 12:57:44;;;;;;;;;;;22.50;59.70;;;;;;5114071;28;19935;-73
2024/03/20 13:00:10;;;;;;;;;;;22.50;59.30;;;;;;5114631;28;19967;-73
2024/03/20 13:02:36;;;;;;;;;;;22.60;58.50;;;;;;5114320;28;19998;-73
2024/03/20 13:05:03;;;;;;;;;;;22.70;59.10;;;;;;5114520;28;20024;-72
2024/03/20 13:07:28;;;;;;;;;;;22.70;59.00;;;;;;5114674;28;20041;-73
2024/03/20 13:09:59;;;;;;;;;;;22.70;59.50;;;;;;5114554;28;19955;-73
2024/03/20 13:12:25;;;;;;;;;;;22.80;58.90;;;;;;5121647;28;19968;-72
2024/03/20 13:14:51;;;;;;;;;;;22.70;59.30;;;;;;5114395;28;20370;-73
2024/03/20 13:17:19;;;;;;;;;;;22.70;59.30;;;;;;5114114;28;20260;-73
2024/03/20 13:19:45;;;;;;;;;;;22.70;57.80;;;;;;5114252;28;19908;-73
2024/03/20 13:22:20;;;;;;;;;;;22.80;59.20;;;;;;5114324;28;20430;-73
2024/03/20 13:24:47;;;;;;;;;;;22.70;57.20;;;;;;5114232;28;19961;-72
2024/03/20 13:27:14;;;;;;;;;;;22.70;59.50;;;;;;5114070;28;19990;-73
2024/03/20 13:29:44;;;;;;;;;;;22.70;59.30;;;;;;5113966;28;19915;-73
2024/03/20 13:32:10;;;;;;;;;;;22.70;59.30;;;;;;5114159;28;19907;-72
2024/03/20 13:34:37;;;;;;;;;;;22.60;59.10;;;;;;5114107;28;20018;-73
2024/03/20 13:37:04;;;;;;;;;;;22.60;59.20;;;;;;5113792;28;19916;-72
2024/03/20 13:39:49;;;;;;;;;;;22.60;59.30;;;;;;5114012;28;19914;-73
2024/03/20 13:42:34;;;;;;;;;;;22.60;57.80;;;;;;5114283;28;20011;-73
2024/03/20 13:45:03;;;;;;;;;;;22.60;59.20;;;;;;5113695;28;19915;-72
2024/03/20 13:47:29;;;;;;;;;;;22.60;58.90;;;;;;5113920;28;19915;-72
2024/03/20 13:49:54;;;;;;;;;;;22.60;58.90;;;;;;5113647;28;20448;-72
2024/03/20 13:52:21;;;;;;;;;;;22.60;59.00;;;;;;5113701;28;19947;-72
2024/03/20 13:54:47;;;;;;;;;;;22.60;58.90;;;;;;5113514;28;19912;-72
2024/03/20 13:57:13;;;;;;;;;;;22.60;59.00;;;;;;5113337;28;20286;-73
2024/03/20 13:59:40;;;;;;;;;;;22.60;58.90;;;;;;5113412;28;20374;-72
2024/03/20 14:02:23;;;;;;;;;;;22.60;58.60;;;;;;5113151;28;20354;-72
2024/03/20 14:04:48;;;;;;;;;;;22.60;56.60;;;;;;5113305;28;19919;-73
2024/03/20 14:07:14;;;;;;;;;;;22.60;58.80;;;;;;5113218;28;19915;-73
2024/03/20 14:09:39;;;;;;;;;;;22.50;58.80;;;;;;5113793;28;19908;-74
2024/03/20 14:12:05;;;;;;;;;;;22.50;58.80;;;;;;5113201;28;19915;-73